Time;durP1;ratioP1;P1;durP2;ratioP2;P2;SDS_P1;SDS_P2;PMS_P1;PMS_P2;Temp;Humidity;BMP_temperature;BMP_pressure;BME280_temperature;BME280_humidity;BME280_pressure;Samples;Min_cycle;Max_cycle;Signal;HPM_P1;HPM_P2
2023/10/31 00:00:36;;;;;;;1.00;0.80;;;;;;;;;;5038901;28;20391;-79
2023/10/31 00:03:02;;;;;;;0.60;0.60;;;;;;;;;;5037079;28;20453;-79
2023/10/31 00:05:28;;;;;;;0.60;0.60;;;;;;;;;;5039256;28;20415;-79
2023/10/31 00:07:54;;;;;;;0.70;0.50;;;;;;;;;;5037103;28;20419;-79
2023/10/31 00:10:20;;;;;;;0.60;0.60;;;;;;;;;;5039540;28;20772;-79
2023/10/31 00:12:47;;;;;;;0.95;0.70;;;;;;;;;;5025149;28;20399;-79
2023/10/31 00:15:13;;;;;;;0.60;0.60;;;;;;;;;;5026498;28;20470;-79
2023/10/31 00:17:39;;;;;;;0.70;0.70;;;;;;;;;;5026042;28;20496;-79
2023/10/31 00:20:05;;;;;;;0.50;0.50;;;;;;;;;;5039330;28;20383;-79
2023/10/31 00:22:31;;;;;;;0.60;0.60;;;;;;;;;;5038042;28;20388;-79
2023/10/31 00:24:57;;;;;;;0.40;0.40;;;;;;;;;;5029521;28;20406;-79
2023/10/31 00:27:23;;;;;;;0.50;0.40;;;;;;;;;;5038227;28;20478;-79
2023/10/31 00:29:49;;;;;;;1.13;0.57;;;;;;;;;;5038623;28;20419;-79
2023/10/31 00:32:15;;;;;;;1.20;1.10;;;;;;;;;;5038360;28;20421;-79
2023/10/31 00:34:41;;;;;;;1.20;0.93;;;;;;;;;;5038042;28;20383;-79
2023/10/31 00:37:07;;;;;;;0.90;0.70;;;;;;;;;;5038625;28;20409;-79
2023/10/31 00:39:34;;;;;;;0.60;0.55;;;;;;;;;;5037548;28;20905;-79
2023/10/31 00:42:00;;;;;;;0.60;0.40;;;;;;;;;;5027145;28;20526;-81
2023/10/31 00:44:26;;;;;;;0.60;0.40;;;;;;;;;;5033751;28;20844;-79
2023/10/31 00:46:52;;;;;;;1.20;0.47;;;;;;;;;;5038386;28;20417;-80
2023/10/31 00:49:18;;;;;;;0.38;0.30;;;;;;;;;;5037912;28;20772;-79
2023/10/31 00:51:44;;;;;;;0.50;0.30;;;;;;;;;;5037658;28;20394;-79
2023/10/31 00:54:10;;;;;;;0.93;0.38;;;;;;;;;;5038020;28;20387;-80
2023/10/31 00:56:36;;;;;;;1.03;0.63;;;;;;;;;;5037287;28;20390;-80
2023/10/31 00:59:02;;;;;;;0.65;0.50;;;;;;;;;;5038165;28;20386;-80
2023/10/31 01:01:28;;;;;;;0.40;0.30;;;;;;;;;;5037015;28;20849;-79
2023/10/31 01:03:54;;;;;;;0.40;0.30;;;;;;;;;;5038101;28;20387;-79
2023/10/31 01:06:20;;;;;;;0.93;0.40;;;;;;;;;;5037099;28;20435;-79
2023/10/31 01:08:46;;;;;;;0.40;0.40;;;;;;;;;;5037189;28;20817;-79
2023/10/31 01:11:12;;;;;;;1.90;0.40;;;;;;;;;;5037774;28;20390;-80
2023/10/31 01:13:38;;;;;;;1.07;0.50;;;;;;;;;;5033912;28;20904;-79
2023/10/31 01:16:04;;;;;;;0.70;0.43;;;;;;;;;;5027967;28;20392;-80
2023/10/31 01:18:30;;;;;;;0.40;0.30;;;;;;;;;;5031877;28;20714;-79
2023/10/31 01:20:56;;;;;;;1.00;0.40;;;;;;;;;;5036846;28;20393;-80
2023/10/31 01:23:22;;;;;;;0.70;0.40;;;;;;;;;;5038050;28;20383;-79
2023/10/31 01:25:51;;;;;;;1.15;0.40;;;;;;;;;;5037477;28;20403;-79
2023/10/31 01:28:17;;;;;;;1.02;0.50;;;;;;;;;;5035007;28;20391;-79
2023/10/31 01:30:43;;;;;;;1.40;0.33;;;;;;;;;;5034710;28;20413;-79
2023/10/31 01:33:09;;;;;;;1.40;0.50;;;;;;;;;;5038439;28;20398;-79
2023/10/31 01:35:35;;;;;;;1.08;0.40;;;;;;;;;;5040069;28;20394;-79
2023/10/31 01:38:01;;;;;;;2.00;0.57;;;;;;;;;;5041329;28;20449;-79
2023/10/31 01:40:27;;;;;;;0.88;0.50;;;;;;;;;;5041239;28;20466;-79
2023/10/31 01:42:53;;;;;;;1.42;0.60;;;;;;;;;;5041538;28;20393;-80
2023/10/31 01:45:19;;;;;;;0.45;0.40;;;;;;;;;;5041405;28;20777;-79
2023/10/31 01:47:49;;;;;;;0.60;0.52;;;;;;;;;;5040922;28;20402;-79
2023/10/31 01:50:15;;;;;;;1.13;0.47;;;;;;;;;;5041933;28;20383;-79
2023/10/31 01:52:44;;;;;;;0.63;0.50;;;;;;;;;;5039399;28;20829;-79
2023/10/31 01:55:11;;;;;;;1.20;0.50;;;;;;;;;;5041604;28;20379;-79
2023/10/31 01:57:37;;;;;;;0.98;0.40;;;;;;;;;;5040584;28;20414;-79
2023/10/31 02:00:03;;;;;;;0.65;0.50;;;;;;;;;;5040968;28;20433;-79
2023/10/31 02:02:30;;;;;;;0.95;0.40;;;;;;;;;;5040717;28;20387;-79
2023/10/31 02:04:56;;;;;;;0.60;0.40;;;;;;;;;;5041128;28;20443;-80
2023/10/31 02:07:22;;;;;;;0.63;0.40;;;;;;;;;;5041139;28;20395;-79
2023/10/31 02:09:48;;;;;;;0.80;0.40;;;;;;;;;;5041671;28;20387;-79
2023/10/31 02:12:33;;;;;;;0.40;0.40;;;;;;;;;;5041268;28;20419;-79
2023/10/31 02:14:59;;;;;;;0.40;0.30;;;;;;;;;;5040029;28;20764;-80
2023/10/31 02:17:25;;;;;;;1.08;0.50;;;;;;;;;;5037866;28;20385;-79
2023/10/31 02:19:51;;;;;;;1.40;0.70;;;;;;;;;;5022865;28;20744;-79
2023/10/31 02:22:17;;;;;;;1.38;0.57;;;;;;;;;;5038729;28;20387;-79
2023/10/31 02:24:43;;;;;;;1.60;0.60;;;;;;;;;;5040825;28;20395;-79
2023/10/31 02:27:09;;;;;;;2.70;0.60;;;;;;;;;;5040385;28;20395;-79
2023/10/31 02:29:35;;;;;;;1.02;0.60;;;;;;;;;;5040453;28;20902;-79
2023/10/31 02:32:01;;;;;;;1.00;0.50;;;;;;;;;;5041520;28;20449;-80
2023/10/31 02:34:27;;;;;;;1.05;0.60;;;;;;;;;;5040070;28;20383;-80
2023/10/31 02:36:53;;;;;;;1.30;0.50;;;;;;;;;;5039581;28;20394;-79
2023/10/31 02:39:19;;;;;;;1.50;0.50;;;;;;;;;;5041083;28;20395;-80
2023/10/31 02:41:45;;;;;;;1.17;0.65;;;;;;;;;;5040790;28;20434;-80
2023/10/31 02:44:11;;;;;;;1.08;0.50;;;;;;;;;;5040525;28;20391;-80
2023/10/31 02:46:40;;;;;;;1.10;0.52;;;;;;;;;;5039216;28;20418;-79
2023/10/31 02:49:06;;;;;;;1.65;0.60;;;;;;;;;;5039564;28;20391;-79
2023/10/31 02:51:32;;;;;;;2.20;0.70;;;;;;;;;;5039439;28;20470;-79
2023/10/31 02:53:58;;;;;;;1.15;0.60;;;;;;;;;;5040498;28;20422;-80
2023/10/31 02:56:25;;;;;;;0.70;0.30;;;;;;;;;;5040036;28;20413;-79
2023/10/31 02:58:51;;;;;;;1.75;0.50;;;;;;;;;;5040776;28;20389;-79
2023/10/31 03:01:19;;;;;;;2.00;0.50;;;;;;;;;;5039318;28;20466;-79
2023/10/31 03:03:45;;;;;;;2.40;0.50;;;;;;;;;;5039754;28;20387;-79
2023/10/31 03:06:11;;;;;;;0.75;0.35;;;;;;;;;;5031002;28;20413;-79
2023/10/31 03:08:37;;;;;;;1.00;0.50;;;;;;;;;;5032176;28;20398;-79
2023/10/31 03:11:03;;;;;;;1.73;0.50;;;;;;;;;;5038461;28;20403;-79
2023/10/31 03:13:29;;;;;;;1.60;0.50;;;;;;;;;;5033405;28;20411;-79
2023/10/31 03:15:55;;;;;;;0.82;0.40;;;;;;;;;;5037825;28;20442;-79
2023/10/31 03:18:22;;;;;;;0.73;0.40;;;;;;;;;;5024022;28;20898;-79
2023/10/31 03:20:48;;;;;;;0.50;0.40;;;;;;;;;;5019950;28;20389;-79
2023/10/31 03:23:14;;;;;;;2.13;0.50;;;;;;;;;;5032039;28;20859;-79
2023/10/31 03:25:40;;;;;;;2.10;0.43;;;;;;;;;;5031181;28;20956;-79
2023/10/31 03:28:18;;;;;;;1.60;0.40;;;;;;;;;;5039299;28;20389;-79
2023/10/31 03:30:44;;;;;;;0.88;0.45;;;;;;;;;;5038302;28;20395;-79
2023/10/31 03:33:10;;;;;;;1.17;0.40;;;;;;;;;;5040203;28;20422;-79
2023/10/31 03:35:36;;;;;;;1.00;0.40;;;;;;;;;;5035497;28;20415;-79
2023/10/31 03:38:02;;;;;;;0.70;0.40;;;;;;;;;;5039564;28;20408;-79
2023/10/31 03:40:28;;;;;;;1.85;0.60;;;;;;;;;;5040057;28;20446;-79
2023/10/31 03:42:54;;;;;;;1.35;0.47;;;;;;;;;;5029546;28;20402;-79
2023/10/31 03:45:20;;;;;;;2.15;0.57;;;;;;;;;;5039544;28;20966;-79
2023/10/31 03:47:47;;;;;;;1.75;0.40;;;;;;;;;;5039912;28;20395;-79
2023/10/31 03:50:13;;;;;;;1.20;0.47;;;;;;;;;;5039515;28;20401;-79
2023/10/31 03:52:39;;;;;;;1.33;0.50;;;;;;;;;;5037857;28;20757;-79
2023/10/31 03:55:05;;;;;;;1.60;0.30;;;;;;;;;;5039094;28;20395;-79
2023/10/31 03:57:31;;;;;;;3.17;0.50;;;;;;;;;;5038590;28;20469;-79
2023/10/31 03:59:57;;;;;;;1.10;0.60;;;;;;;;;;5039419;28;20905;-79
2023/10/31 04:02:23;;;;;;;1.83;0.57;;;;;;;;;;5039402;28;20855;-79
2023/10/31 04:04:49;;;;;;;1.63;0.50;;;;;;;;;;5039514;28;20387;-79
2023/10/31 04:07:15;;;;;;;1.15;0.40;;;;;;;;;;5039031;28;20383;-79
2023/10/31 04:09:41;;;;;;;2.05;0.60;;;;;;;;;;5039318;28;20768;-79
2023/10/31 04:12:07;;;;;;;2.75;0.50;;;;;;;;;;5038084;28;20399;-79
2023/10/31 04:14:33;;;;;;;2.53;0.50;;;;;;;;;;5038907;28;20380;-79
2023/10/31 04:16:59;;;;;;;1.60;0.53;;;;;;;;;;5038939;28;20948;-79
2023/10/31 04:19:25;;;;;;;2.47;0.60;;;;;;;;;;5039420;28;20379;-79
2023/10/31 04:21:52;;;;;;;1.20;0.85;;;;;;;;;;5038882;28;20394;-79
2023/10/31 04:24:18;;;;;;;1.58;0.50;;;;;;;;;;5034268;28;20375;-79
2023/10/31 04:26:44;;;;;;;0.90;0.40;;;;;;;;;;5037858;28;20507;-79
2023/10/31 04:29:10;;;;;;;2.42;0.60;;;;;;;;;;5038171;28;20387;-79
2023/10/31 04:31:36;;;;;;;1.55;0.60;;;;;;;;;;5036367;28;20422;-79
2023/10/31 04:34:02;;;;;;;2.30;0.90;;;;;;;;;;5038012;28;20814;-79
2023/10/31 04:36:28;;;;;;;1.27;0.57;;;;;;;;;;5036257;28;20452;-79
2023/10/31 04:38:54;;;;;;;2.90;0.80;;;;;;;;;;5034651;28;20448;-79
2023/10/31 04:41:20;;;;;;;1.45;0.90;;;;;;;;;;5036957;28;20394;-79
2023/10/31 04:43:46;;;;;;;2.47;0.90;;;;;;;;;;5036224;28;20450;-79
2023/10/31 04:46:12;;;;;;;3.30;1.27;;;;;;;;;;5038159;28;20498;-79
2023/10/31 04:48:38;;;;;;;1.83;1.08;;;;;;;;;;5037992;28;20403;-79
2023/10/31 04:51:04;;;;;;;3.17;0.80;;;;;;;;;;5038863;28;20375;-79
2023/10/31 04:53:32;;;;;;;2.45;0.80;;;;;;;;;;5037635;28;20391;-79
2023/10/31 04:55:59;;;;;;;1.90;0.60;;;;;;;;;;5038137;28;20383;-78
2023/10/31 04:58:25;;;;;;;1.55;0.80;;;;;;;;;;5038318;28;20379;-79
2023/10/31 05:00:51;;;;;;;1.83;0.57;;;;;;;;;;5038092;28;20391;-79
2023/10/31 05:03:17;;;;;;;2.20;0.70;;;;;;;;;;5038216;28;20407;-79
2023/10/31 05:05:43;;;;;;;1.80;0.80;;;;;;;;;;5037534;28;20465;-79
2023/10/31 05:08:09;;;;;;;1.45;0.52;;;;;;;;;;5038742;28;20395;-79
2023/10/31 05:10:35;;;;;;;2.00;0.60;;;;;;;;;;5038000;28;20422;-79
2023/10/31 05:13:05;;;;;;;1.80;0.70;;;;;;;;;;5037926;28;20391;-79
2023/10/31 05:15:31;;;;;;;2.60;0.70;;;;;;;;;;5037786;28;20380;-79
2023/10/31 05:17:57;;;;;;;2.28;0.60;;;;;;;;;;5037751;28;20391;-79
2023/10/31 05:20:23;;;;;;;2.30;0.60;;;;;;;;;;5038039;28;20383;-79
2023/10/31 05:22:49;;;;;;;3.45;0.50;;;;;;;;;;5038163;28;20453;-79
2023/10/31 05:25:15;;;;;;;1.58;0.80;;;;;;;;;;5035017;28;20413;-79
2023/10/31 05:27:41;;;;;;;2.57;0.60;;;;;;;;;;5031434;28;20894;-79
2023/10/31 05:30:07;;;;;;;3.65;1.05;;;;;;;;;;5030751;28;20411;-79
2023/10/31 05:32:33;;;;;;;2.58;1.70;;;;;;;;;;5038747;28;20737;-79
2023/10/31 05:34:59;;;;;;;2.60;1.30;;;;;;;;;;5039148;28;20383;-79
2023/10/31 05:37:25;;;;;;;3.70;1.30;;;;;;;;;;5038620;28;20403;-79
2023/10/31 05:39:51;;;;;;;3.53;1.00;;;;;;;;;;5037556;28;20391;-79
2023/10/31 05:42:20;;;;;;;2.58;0.68;;;;;;;;;;5035651;28;20379;-80
2023/10/31 05:44:49;;;;;;;1.52;0.60;;;;;;;;;;5017524;28;20478;-79
2023/10/31 05:47:15;;;;;;;3.22;0.60;;;;;;;;;;5019098;28;20419;-79
2023/10/31 05:49:45;;;;;;;2.67;0.80;;;;;;;;;;5037360;28;20390;-79
2023/10/31 05:52:11;;;;;;;2.42;0.88;;;;;;;;;;5037630;28;20860;-79
2023/10/31 05:54:37;;;;;;;2.60;1.05;;;;;;;;;;5036992;28;20454;-79
2023/10/31 05:57:03;;;;;;;2.00;0.90;;;;;;;;;;5036917;28;20462;-79
2023/10/31 05:59:29;;;;;;;1.75;0.88;;;;;;;;;;5029589;28;20426;-79
2023/10/31 06:01:55;;;;;;;2.00;1.02;;;;;;;;;;5034151;28;20395;-79
2023/10/31 06:04:22;;;;;;;5.70;1.00;;;;;;;;;;5025213;28;20777;-81
2023/10/31 06:06:51;;;;;;;2.00;1.00;;;;;;;;;;5034815;28;20455;-81
2023/10/31 06:09:17;;;;;;;2.22;0.80;;;;;;;;;;5036933;28;20399;-78
2023/10/31 06:11:44;;;;;;;2.10;0.97;;;;;;;;;;5037670;28;20480;-79
2023/10/31 06:14:13;;;;;;;2.30;0.87;;;;;;;;;;5020408;28;20387;-80
2023/10/31 06:16:43;;;;;;;2.42;0.98;;;;;;;;;;5027466;28;20535;-78
2023/10/31 06:19:09;;;;;;;2.45;0.95;;;;;;;;;;5018396;28;20389;-81
2023/10/31 06:21:35;;;;;;;3.22;0.90;;;;;;;;;;5030927;28;20393;-81
2023/10/31 06:24:02;;;;;;;2.97;1.17;;;;;;;;;;5037083;28;20395;-78
2023/10/31 06:26:28;;;;;;;2.47;0.98;;;;;;;;;;5030427;28;20423;-79
2023/10/31 06:28:54;;;;;;;1.55;0.93;;;;;;;;;;5038374;28;20385;-80
2023/10/31 06:31:20;;;;;;;1.80;1.02;;;;;;;;;;5012634;28;20401;-80
2023/10/31 06:33:46;;;;;;;2.00;1.10;;;;;;;;;;5034361;28;20430;-80
2023/10/31 06:36:12;;;;;;;3.47;1.15;;;;;;;;;;5035813;28;20391;-80
2023/10/31 06:38:38;;;;;;;2.33;1.30;;;;;;;;;;5033189;28;20835;-80
2023/10/31 06:41:05;;;;;;;2.20;1.30;;;;;;;;;;5021395;28;20395;-80
2023/10/31 06:43:31;;;;;;;2.05;1.58;;;;;;;;;;5029275;28;20422;-80
2023/10/31 06:46:00;;;;;;;2.67;1.10;;;;;;;;;;5038365;28;20419;-80
2023/10/31 06:48:26;;;;;;;2.70;1.42;;;;;;;;;;5037813;28;20698;-80
2023/10/31 06:50:52;;;;;;;5.15;3.03;;;;;;;;;;5034418;28;20390;-80
2023/10/31 06:53:18;;;;;;;5.70;5.10;;;;;;;;;;5038398;28;20415;-80
2023/10/31 06:55:44;;;;;;;3.05;2.08;;;;;;;;;;5039908;28;20390;-80
2023/10/31 06:58:10;;;;;;;3.75;1.50;;;;;;;;;;5028975;28;20402;-81
2023/10/31 07:00:37;;;;;;;3.13;1.60;;;;;;;;;;5037658;28;20394;-81
2023/10/31 07:03:09;;;;;;;2.35;1.95;;;;;;;;;;5035197;28;20467;-80
2023/10/31 07:05:36;;;;;;;2.60;1.90;;;;;;;;;;5037446;28;20416;-80
2023/10/31 07:08:03;;;;;;;3.60;1.50;;;;;;;;;;5031341;28;20962;-81
2023/10/31 07:10:29;;;;;;;2.10;1.45;;;;;;;;;;5034884;28;20395;-82
2023/10/31 07:12:55;;;;;;;3.08;1.45;;;;;;;;;;5023785;28;20385;-82
2023/10/31 07:15:21;;;;;;;3.70;1.73;;;;;;;;;;5037849;28;20429;-82
2023/10/31 07:17:48;;;;;;;3.60;2.20;;;;;;;;;;5038216;28;20391;-81
2023/10/31 07:20:14;;;;;;;2.88;2.10;;;;;;;;;;5029615;28;20393;-79
2023/10/31 07:22:40;;;;;;;3.88;1.88;;;;;;;;;;5033965;28;20741;-80
2023/10/31 07:25:06;;;;;;;2.53;1.88;;;;;;;;;;5027780;28;20443;-80
2023/10/31 07:27:32;;;;;;;3.17;1.80;;;;;;;;;;5029969;28;20457;-80
2023/10/31 07:29:58;;;;;;;3.60;1.65;;;;;;;;;;5035777;28;20399;-80
2023/10/31 07:32:25;;;;;;;3.60;2.10;;;;;;;;;;5034694;28;20902;-80
2023/10/31 07:34:51;;;;;;;2.38;1.77;;;;;;;;;;5035077;28;20380;-80
2023/10/31 07:37:17;;;;;;;3.97;1.92;;;;;;;;;;5028873;28;20386;-80
2023/10/31 07:39:43;;;;;;;2.40;1.70;;;;;;;;;;5035152;28;20466;-80
2023/10/31 07:42:09;;;;;;;2.28;1.48;;;;;;;;;;5035152;28;20402;-80
2023/10/31 07:44:35;;;;;;;2.47;1.60;;;;;;;;;;5034857;28;20383;-80
2023/10/31 07:47:01;;;;;;;1.92;1.67;;;;;;;;;;5035617;28;20415;-80
2023/10/31 07:49:27;;;;;;;4.10;1.60;;;;;;;;;;5030233;28;20400;-80
2023/10/31 07:51:53;;;;;;;2.90;1.45;;;;;;;;;;5034094;28;20398;-80
2023/10/31 07:54:20;;;;;;;2.30;1.60;;;;;;;;;;5035017;28;20457;-80
2023/10/31 07:56:46;;;;;;;3.00;1.70;;;;;;;;;;5030949;28;20387;-80
2023/10/31 07:59:12;;;;;;;2.78;1.42;;;;;;;;;;5021516;28;20458;-80
2023/10/31 08:01:38;;;;;;;2.78;1.40;;;;;;;;;;5016292;28;20850;-80
2023/10/31 08:04:04;;;;;;;4.47;1.43;;;;;;;;;;5035446;28;20379;-80
2023/10/31 08:06:30;;;;;;;2.95;1.30;;;;;;;;;;5035157;28;20442;-80
2023/10/31 08:08:56;;;;;;;4.13;1.30;;;;;;;;;;5032093;28;20407;-81
2023/10/31 08:11:22;;;;;;;2.97;1.40;;;;;;;;;;5034670;28;20387;-81
2023/10/31 08:13:48;;;;;;;2.30;1.30;;;;;;;;;;5035509;28;20390;-81
2023/10/31 08:16:20;;;;;;;2.50;1.27;;;;;;;;;;5035809;28;20387;-81
2023/10/31 08:18:46;;;;;;;3.20;1.20;;;;;;;;;;5018076;28;20884;-81
2023/10/31 08:21:12;;;;;;;2.78;1.20;;;;;;;;;;5035714;28;20418;-81
2023/10/31 08:23:39;;;;;;;3.78;1.52;;;;;;;;;;5035481;28;20383;-81
2023/10/31 08:26:05;;;;;;;1.95;1.20;;;;;;;;;;5034844;28;20510;-81
2023/10/31 08:28:31;;;;;;;2.60;1.33;;;;;;;;;;5035761;28;20486;-81
2023/10/31 08:30:57;;;;;;;2.28;1.05;;;;;;;;;;5021459;28;20374;-80
2023/10/31 08:33:24;;;;;;;1.90;1.20;;;;;;;;;;5033573;28;20863;-81
2023/10/31 08:35:50;;;;;;;3.33;1.38;;;;;;;;;;5033603;28;20407;-81
2023/10/31 08:38:16;;;;;;;3.70;1.35;;;;;;;;;;5035920;28;20402;-81
2023/10/31 08:40:43;;;;;;;2.73;1.20;;;;;;;;;;5035561;28;20387;-81
2023/10/31 08:43:09;;;;;;;1.65;1.17;;;;;;;;;;5034923;28;20776;-80
2023/10/31 08:45:35;;;;;;;1.90;1.30;;;;;;;;;;5035044;28;20411;-80
2023/10/31 08:48:01;;;;;;;1.38;1.20;;;;;;;;;;5035078;28;20401;-80
2023/10/31 08:50:27;;;;;;;3.10;1.40;;;;;;;;;;5035809;28;20390;-80
2023/10/31 08:52:53;;;;;;;3.35;1.90;;;;;;;;;;5035261;28;20383;-81
2023/10/31 08:55:20;;;;;;;3.17;1.90;;;;;;;;;;5035469;28;20441;-80
2023/10/31 08:57:46;;;;;;;3.13;1.88;;;;;;;;;;5035347;28;20387;-81
2023/10/31 09:00:13;;;;;;;2.38;1.83;;;;;;;;;;5035441;28;20414;-81
2023/10/31 09:02:39;;;;;;;2.65;1.70;;;;;;;;;;5017981;28;20391;-81
2023/10/31 09:05:06;;;;;;;3.55;1.83;;;;;;;;;;5035692;28;20871;-81
2023/10/31 09:07:32;;;;;;;3.33;2.08;;;;;;;;;;5035196;28;20406;-81
2023/10/31 09:09:58;;;;;;;3.00;1.90;;;;;;;;;;5034861;28;20796;-81
2023/10/31 09:12:24;;;;;;;2.75;2.08;;;;;;;;;;5035873;28;20394;-81
2023/10/31 09:14:50;;;;;;;3.90;1.92;;;;;;;;;;5035234;28;20406;-81
2023/10/31 09:17:16;;;;;;;3.00;2.20;;;;;;;;;;5021843;28;20411;-80
2023/10/31 09:19:42;;;;;;;6.13;5.10;;;;;;;;;;5035624;28;20383;-81
2023/10/31 09:22:08;;;;;;;3.75;2.15;;;;;;;;;;5035786;28;20764;-81
2023/10/31 09:24:34;;;;;;;3.38;2.00;;;;;;;;;;5035603;28;20478;-81
2023/10/31 09:27:00;;;;;;;2.83;2.17;;;;;;;;;;5035060;28;20510;-81
2023/10/31 09:29:29;;;;;;;3.70;2.28;;;;;;;;;;5035287;28;20431;-81
2023/10/31 09:31:55;;;;;;;4.47;2.42;;;;;;;;;;5035276;28;20402;-80
2023/10/31 09:34:21;;;;;;;4.17;2.40;;;;;;;;;;5021372;28;20387;-81
2023/10/31 09:36:47;;;;;;;3.40;2.30;;;;;;;;;;5034786;28;20472;-81
2023/10/31 09:39:13;;;;;;;3.55;2.03;;;;;;;;;;5035714;28;20384;-80
2023/10/31 09:41:39;;;;;;;3.27;2.27;;;;;;;;;;5035111;28;20415;-80
2023/10/31 09:44:05;;;;;;;4.50;2.30;;;;;;;;;;5034961;28;20726;-81
2023/10/31 09:46:31;;;;;;;2.55;2.00;;;;;;;;;;5034363;28;20443;-81
2023/10/31 09:48:57;;;;;;;4.72;2.40;;;;;;;;;;5035465;28;20394;-80
2023/10/31 09:51:23;;;;;;;3.80;2.10;;;;;;;;;;5034669;28;20485;-81
2023/10/31 09:53:54;;;;;;;5.33;2.33;;;;;;;;;;5035339;28;20756;-81
2023/10/31 09:56:20;;;;;;;3.50;2.15;;;;;;;;;;5027167;28;20387;-80
2023/10/31 09:58:47;;;;;;;3.67;2.40;;;;;;;;;;5038333;28;20490;-80
2023/10/31 10:01:14;;;;;;;3.05;1.85;;;;;;;;;;5038068;28;21289;-80
2023/10/31 10:03:41;;;;;;;2.83;1.80;;;;;;;;;;5029780;28;20841;-80
2023/10/31 10:06:07;;;;;;;2.30;1.77;;;;;;;;;;5020190;28;20427;-81
2023/10/31 10:08:37;;;;;;;3.63;1.50;;;;;;;;;;5035899;28;20377;-81
2023/10/31 10:11:03;;;;;;;3.53;1.60;;;;;;;;;;5035396;28;20478;-80
2023/10/31 10:13:29;;;;;;;1.73;1.38;;;;;;;;;;5035754;28;20867;-80
2023/10/31 10:15:55;;;;;;;2.42;1.35;;;;;;;;;;5027439;28;20464;-80
2023/10/31 10:18:31;;;;;;;1.85;1.20;;;;;;;;;;5029839;28;20457;-80
2023/10/31 10:20:57;;;;;;;2.50;0.90;;;;;;;;;;5035453;28;20832;-80
2023/10/31 10:23:25;;;;;;;2.60;0.80;;;;;;;;;;5035250;28;20441;-80
2023/10/31 10:25:51;;;;;;;1.23;0.63;;;;;;;;;;5034186;28;20421;-80
2023/10/31 10:28:19;;;;;;;1.83;0.77;;;;;;;;;;5033977;28;20387;-80
2023/10/31 10:30:47;;;;;;;2.17;0.60;;;;;;;;;;5038997;28;20453;-81
2023/10/31 10:33:13;;;;;;;1.45;0.70;;;;;;;;;;5039782;28;20422;-81
2023/10/31 10:35:39;;;;;;;1.55;0.80;;;;;;;;;;5039909;28;20387;-81
2023/10/31 10:38:06;;;;;;;1.70;1.00;;;;;;;;;;5039698;28;20395;-81
2023/10/31 10:40:32;;;;;;;2.00;0.93;;;;;;;;;;5040235;28;20430;-81
2023/10/31 10:43:00;;;;;;;1.40;0.77;;;;;;;;;;5022126;28;20498;-81
2023/10/31 10:45:26;;;;;;;1.60;0.80;;;;;;;;;;5040522;28;20422;-81
2023/10/31 10:47:52;;;;;;;1.42;0.98;;;;;;;;;;5038563;28;20411;-81
2023/10/31 10:50:28;;;;;;;2.78;0.73;;;;;;;;;;5040887;28;20841;-81
2023/10/31 10:53:08;;;;;;;1.63;0.80;;;;;;;;;;5040065;28;20402;-80
2023/10/31 10:55:35;;;;;;;1.10;0.70;;;;;;;;;;5037663;28;20433;-81
2023/10/31 10:58:05;;;;;;;1.60;0.70;;;;;;;;;;5034733;28;20421;-81
2023/10/31 11:00:31;;;;;;;1.42;0.52;;;;;;;;;;5040402;28;20383;-81
2023/10/31 11:02:57;;;;;;;1.20;0.50;;;;;;;;;;5039823;28;20391;-81
2023/10/31 11:05:24;;;;;;;1.08;0.63;;;;;;;;;;5040168;28;20748;-81
2023/10/31 11:07:52;;;;;;;2.17;0.65;;;;;;;;;;5038945;28;20454;-81
2023/10/31 11:10:18;;;;;;;1.33;0.60;;;;;;;;;;5039940;28;20390;-81
2023/10/31 11:12:44;;;;;;;1.40;0.60;;;;;;;;;;5039936;28;20597;-81
2023/10/31 11:15:14;;;;;;;1.30;0.60;;;;;;;;;;5029639;28;20387;-81
2023/10/31 11:17:41;;;;;;;1.17;0.60;;;;;;;;;;5039580;28;20391;-81
2023/10/31 11:20:08;;;;;;;1.92;0.90;;;;;;;;;;5039023;28;20383;-81
2023/10/31 11:22:42;;;;;;;1.30;0.55;;;;;;;;;;5039586;28;20379;-81
2023/10/31 11:25:13;;;;;;;2.20;0.80;;;;;;;;;;5027446;28;20389;-81
2023/10/31 11:27:41;;;;;;;1.38;0.60;;;;;;;;;;5041101;28;20399;-81
2023/10/31 11:30:08;;;;;;;1.10;0.60;;;;;;;;;;5040665;28;20383;-81
2023/10/31 11:32:34;;;;;;;2.20;0.60;;;;;;;;;;5040494;28;20749;-81
2023/10/31 11:35:01;;;;;;;2.78;0.80;;;;;;;;;;5040603;28;20844;-82
2023/10/31 11:37:34;;;;;;;3.03;0.80;;;;;;;;;;5040139;28;20398;-81
2023/10/31 11:40:16;;;;;;;2.70;1.10;;;;;;;;;;5037601;28;20387;-81
2023/10/31 11:42:42;;;;;;;1.42;0.65;;;;;;;;;;5040866;28;20393;-81
2023/10/31 11:45:08;;;;;;;1.70;0.80;;;;;;;;;;5041077;28;20394;-81
2023/10/31 11:47:47;;;;;;;1.40;0.70;;;;;;;;;;5038408;28;20399;-81
2023/10/31 11:50:13;;;;;;;1.00;0.68;;;;;;;;;;5037303;28;20426;-81
2023/10/31 11:52:39;;;;;;;0.95;0.80;;;;;;;;;;5035060;28;20401;-81
2023/10/31 11:55:09;;;;;;;1.20;0.80;;;;;;;;;;5040518;28;20395;-81
2023/10/31 11:57:35;;;;;;;1.48;1.15;;;;;;;;;;5040611;28;20730;-82
2023/10/31 12:00:02;;;;;;;2.13;1.05;;;;;;;;;;5041653;28;20402;-81
2023/10/31 12:02:28;;;;;;;2.28;1.00;;;;;;;;;;5041901;28;20393;-81
2023/10/31 12:05:08;;;;;;;1.17;0.80;;;;;;;;;;5041457;28;20386;-81
2023/10/31 12:07:46;;;;;;;3.47;0.93;;;;;;;;;;5025561;28;20404;-83
2023/10/31 12:10:13;;;;;;;2.47;1.00;;;;;;;;;;5032178;28;20371;-82
2023/10/31 12:12:39;;;;;;;2.00;1.38;;;;;;;;;;5039415;28;20387;-81
2023/10/31 12:15:06;;;;;;;2.85;1.85;;;;;;;;;;5026355;28;20929;-82
2023/10/31 12:17:32;;;;;;;2.38;1.60;;;;;;;;;;5027954;28;20409;-82
2023/10/31 12:19:59;;;;;;;2.17;0.77;;;;;;;;;;5037773;28;20391;-81
2023/10/31 12:22:25;;;;;;;1.65;0.60;;;;;;;;;;5038476;28;20387;-81
2023/10/31 12:24:51;;;;;;;1.40;1.02;;;;;;;;;;5038215;28;20968;-82
2023/10/31 12:27:17;;;;;;;1.42;1.13;;;;;;;;;;5038876;28;20445;-81
2023/10/31 12:29:44;;;;;;;1.33;0.90;;;;;;;;;;5032033;28;20386;-82
2023/10/31 12:32:13;;;;;;;1.92;0.90;;;;;;;;;;5027621;28;20468;-82
2023/10/31 12:34:43;;;;;;;2.83;0.70;;;;;;;;;;5025325;28;20394;-81
2023/10/31 12:37:10;;;;;;;2.23;0.93;;;;;;;;;;5039691;28;20391;-81
2023/10/31 12:39:36;;;;;;;1.48;0.80;;;;;;;;;;5028928;28;20386;-82
2023/10/31 12:42:03;;;;;;;1.85;1.00;;;;;;;;;;5039500;28;20379;-82
2023/10/31 12:44:29;;;;;;;1.70;0.90;;;;;;;;;;5040093;28;20467;-82
2023/10/31 12:46:55;;;;;;;1.75;0.90;;;;;;;;;;5031253;28;20870;-82
2023/10/31 12:49:23;;;;;;;2.13;1.30;;;;;;;;;;5033230;28;20470;-82
2023/10/31 12:51:56;;;;;;;1.25;0.77;;;;;;;;;;5041935;28;20409;-82
2023/10/31 12:54:32;;;;;;;1.30;0.70;;;;;;;;;;5041199;28;20385;-82
2023/10/31 12:57:01;;;;;;;1.52;0.90;;;;;;;;;;5041701;28;20418;-82
2023/10/31 12:59:27;;;;;;;1.40;0.70;;;;;;;;;;5040435;28;20387;-82
2023/10/31 13:01:54;;;;;;;2.67;1.00;;;;;;;;;;5040322;28;20379;-82
2023/10/31 13:04:26;;;;;;;1.65;0.80;;;;;;;;;;5025202;28;20858;-82
2023/10/31 13:06:56;;;;;;;2.13;1.20;;;;;;;;;;5031731;28;20442;-82
2023/10/31 13:09:22;;;;;;;1.17;0.73;;;;;;;;;;5040769;28;20439;-82
2023/10/31 13:11:48;;;;;;;1.92;0.90;;;;;;;;;;5033457;28;20927;-81
2023/10/31 13:14:14;;;;;;;2.30;0.70;;;;;;;;;;5041960;28;20394;-82
2023/10/31 13:16:40;;;;;;;1.38;0.77;;;;;;;;;;5036999;28;20425;-82
2023/10/31 13:19:06;;;;;;;3.30;0.90;;;;;;;;;;5033928;28;20420;-82
2023/10/31 13:21:32;;;;;;;2.50;1.20;;;;;;;;;;5020113;28;20424;-82
2023/10/31 13:23:58;;;;;;;2.57;1.10;;;;;;;;;;5020206;28;20385;-82
2023/10/31 13:26:24;;;;;;;2.40;1.10;;;;;;;;;;5020340;28;20432;-82
2023/10/31 13:28:50;;;;;;;1.77;0.80;;;;;;;;;;5017496;28;20388;-82
2023/10/31 13:31:17;;;;;;;1.67;0.60;;;;;;;;;;5028119;28;20472;-82
2023/10/31 13:33:46;;;;;;;1.58;0.80;;;;;;;;;;5029512;28;20494;-81
2023/10/31 13:36:16;;;;;;;1.60;1.13;;;;;;;;;;5038961;28;20717;-82
2023/10/31 13:38:42;;;;;;;1.25;0.60;;;;;;;;;;5039416;28;20421;-82
2023/10/31 13:41:08;;;;;;;2.20;0.70;;;;;;;;;;5040395;28;20383;-82
2023/10/31 13:43:34;;;;;;;2.67;0.93;;;;;;;;;;5042579;28;20424;-82
2023/10/31 13:46:01;;;;;;;1.40;0.90;;;;;;;;;;5041071;28;20411;-81
2023/10/31 13:48:27;;;;;;;1.70;1.00;;;;;;;;;;5042505;28;20436;-82
2023/10/31 13:50:53;;;;;;;2.10;0.93;;;;;;;;;;5041537;28;20383;-82
2023/10/31 13:53:19;;;;;;;1.70;1.10;;;;;;;;;;5041917;28;20836;-82
2023/10/31 13:55:45;;;;;;;1.70;0.98;;;;;;;;;;5040886;28;20389;-82
2023/10/31 13:58:13;;;;;;;1.33;0.93;;;;;;;;;;5039262;28;20391;-81
2023/10/31 14:00:39;;;;;;;2.70;0.80;;;;;;;;;;5040792;28;20395;-81
2023/10/31 14:03:06;;;;;;;1.75;0.70;;;;;;;;;;5040619;28;20403;-82
2023/10/31 14:05:32;;;;;;;1.43;0.90;;;;;;;;;;5041711;28;20447;-83
2023/10/31 14:07:58;;;;;;;2.20;1.10;;;;;;;;;;5039939;28;20383;-83
2023/10/31 14:10:25;;;;;;;2.13;1.05;;;;;;;;;;5038449;28;20402;-82
2023/10/31 14:12:52;;;;;;;2.50;0.98;;;;;;;;;;5038965;28;20417;-82
2023/10/31 14:15:18;;;;;;;0.73;0.73;;;;;;;;;;5040055;28;20380;-82
2023/10/31 14:17:44;;;;;;;1.60;1.00;;;;;;;;;;5040221;28;20446;-81
2023/10/31 14:20:10;;;;;;;1.75;0.95;;;;;;;;;;5039601;28;20395;-81
2023/10/31 14:22:36;;;;;;;3.27;1.03;;;;;;;;;;5039943;28;20387;-81
2023/10/31 14:25:04;;;;;;;1.13;0.80;;;;;;;;;;5039609;28;20383;-81
2023/10/31 14:27:30;;;;;;;2.35;0.90;;;;;;;;;;5040168;28;20415;-81
2023/10/31 14:29:56;;;;;;;1.43;1.07;;;;;;;;;;5039855;28;20469;-81
2023/10/31 14:32:25;;;;;;;1.90;0.80;;;;;;;;;;5021384;28;20387;-81
2023/10/31 14:34:51;;;;;;;1.10;0.82;;;;;;;;;;5038291;28;20876;-81
2023/10/31 14:37:17;;;;;;;1.88;1.00;;;;;;;;;;5029154;28;20431;-81
2023/10/31 14:39:43;;;;;;;1.92;1.20;;;;;;;;;;5019933;28;20408;-81